createdAt,value
2019-01-23T00:01:00.605Z,0.60
2019-01-23T00:03:29.860Z,0.70
2019-01-23T00:05:59.039Z,0.70
2019-01-23T00:08:28.192Z,0.70
2019-01-23T00:10:57.334Z,0.80
2019-01-23T00:13:26.504Z,0.70
2019-01-23T00:15:55.660Z,0.60
2019-01-23T00:18:24.799Z,0.70
2019-01-23T00:20:54.048Z,0.70
2019-01-23T00:23:23.211Z,0.60
2019-01-23T00:25:52.347Z,0.70
2019-01-23T00:28:21.515Z,0.70
2019-01-23T00:30:50.793Z,0.60
2019-01-23T00:33:19.953Z,0.60
2019-01-23T00:35:49.193Z,0.60
2019-01-23T00:38:19.768Z,0.60
2019-01-23T00:40:49.129Z,0.50
2019-01-23T00:43:18.280Z,0.60
2019-01-23T00:45:47.471Z,0.50
2019-01-23T00:48:16.628Z,0.50
2019-01-23T00:50:45.860Z,0.60
2019-01-23T00:53:15.036Z,0.60
2019-01-23T00:55:44.179Z,0.50
2019-01-23T00:58:13.442Z,0.50
2019-01-23T01:00:42.749Z,0.50
2019-01-23T01:03:12.132Z,0.40
2019-01-23T01:05:41.316Z,0.50
2019-01-23T01:08:10.515Z,0.50
2019-01-23T01:10:39.683Z,0.50
2019-01-23T01:13:08.853Z,0.40
2019-01-23T01:15:38.201Z,0.20
2019-01-23T01:18:08.100Z,0.30
2019-01-23T01:20:37.262Z,0.40
2019-01-23T01:23:06.412Z,0.20
2019-01-23T01:25:35.581Z,0.20
2019-01-23T01:28:04.717Z,0.30
2019-01-23T01:30:33.868Z,0.30
2019-01-23T01:33:03.057Z,0.30
2019-01-23T01:35:32.187Z,0.40
2019-01-23T01:38:01.348Z,0.30
2019-01-23T01:40:31.102Z,0.30
2019-01-23T01:43:00.252Z,0.10
2019-01-23T01:45:29.690Z,0.00
2019-01-23T01:47:58.810Z,0.20
2019-01-23T01:50:28.048Z,0.30
2019-01-23T01:52:57.205Z,0.30
2019-01-23T01:55:26.352Z,0.30
2019-01-23T01:57:59.369Z,0.20
2019-01-23T02:00:28.589Z,0.20
2019-01-23T02:02:57.813Z,0.20
2019-01-23T02:05:26.968Z,0.20
2019-01-23T02:07:56.230Z,0.30
2019-01-23T02:10:25.497Z,0.10
2019-01-23T02:12:54.644Z,0.20
2019-01-23T02:15:23.876Z,0.20
2019-01-23T02:17:53.152Z,0.10
2019-01-23T02:20:27.036Z,0.10
2019-01-23T02:22:56.291Z,0.10
2019-01-23T02:25:25.495Z,0.10
2019-01-23T02:27:54.761Z,0.10
2019-01-23T02:30:25.369Z,0.00
2019-01-23T02:32:54.532Z,0.10
2019-01-23T02:35:23.953Z,0.20
2019-01-23T02:37:53.134Z,0.30
2019-01-23T02:40:23.764Z,0.30
2019-01-23T02:42:53.129Z,0.30
2019-01-23T02:45:23.315Z,0.20
2019-01-23T02:47:52.662Z,0.30
2019-01-23T02:50:21.914Z,0.20
2019-01-23T02:52:51.345Z,0.20
2019-01-23T02:55:20.500Z,0.00
2019-01-23T02:57:49.654Z,0.10
2019-01-23T03:00:20.191Z,0.20
2019-01-23T03:02:50.045Z,0.30
2019-01-23T03:05:20.792Z,0.30
2019-01-23T03:07:50.040Z,0.20
2019-01-23T03:10:21.125Z,0.10
2019-01-23T03:12:50.465Z,0.10
2019-01-23T03:15:19.913Z,0.20
2019-01-23T03:17:49.059Z,0.20
2019-01-23T03:20:19.894Z,0.20
2019-01-23T03:22:49.090Z,0.10
2019-01-23T03:25:18.625Z,0.00
2019-01-23T03:27:48.080Z,0.20
2019-01-23T03:30:19.579Z,0.00
2019-01-23T03:32:49.012Z,-0.10
2019-01-23T03:35:18.553Z,0.00
2019-01-23T03:37:47.968Z,0.00
2019-01-23T03:40:19.328Z,-0.10
2019-01-23T03:42:48.489Z,0.00
2019-01-23T03:45:17.952Z,0.00
2019-01-23T03:47:47.303Z,0.10
2019-01-23T03:50:17.838Z,0.00
2019-01-23T03:52:47.014Z,0.00
2019-01-23T03:55:16.894Z,0.00
2019-01-23T03:57:46.254Z,0.00
2019-01-23T04:00:18.465Z,0.00
2019-01-23T04:02:48.328Z,0.00
2019-01-23T04:05:17.588Z,0.00
2019-01-23T04:07:46.766Z,-0.10
2019-01-23T04:10:16.224Z,0.00
2019-01-23T04:12:45.621Z,-0.10
2019-01-23T04:15:15.819Z,0.00
2019-01-23T04:17:45.081Z,-0.20
2019-01-23T04:20:19.356Z,-0.20
2019-01-23T04:22:48.771Z,-0.20
2019-01-23T04:25:18.228Z,-0.10
2019-01-23T04:27:47.368Z,-0.30
2019-01-23T04:30:20.167Z,-0.20
2019-01-23T04:32:49.326Z,-0.20
2019-01-23T04:35:18.513Z,-0.20
2019-01-23T04:37:47.885Z,-0.30
2019-01-23T04:40:17.021Z,-0.30
2019-01-23T04:42:46.193Z,-0.40
2019-01-23T04:45:15.662Z,-0.40
2019-01-23T04:47:44.800Z,-0.40
2019-01-23T04:50:15.708Z,-0.40
2019-01-23T04:53:05.711Z,-0.50
2019-01-23T04:55:36.764Z,-0.50
2019-01-23T04:58:05.901Z,-0.40
2019-01-23T05:00:35.255Z,-0.40
2019-01-23T05:03:04.387Z,-0.40
2019-01-23T05:05:33.571Z,-0.50
2019-01-23T05:08:02.712Z,-0.50
2019-01-23T05:10:31.970Z,-0.50
2019-01-23T05:13:01.125Z,-0.50
2019-01-23T05:15:30.272Z,-0.60
2019-01-23T05:17:59.426Z,-0.60
2019-01-23T05:20:28.578Z,-0.60
2019-01-23T05:22:57.793Z,-0.60
2019-01-23T05:25:26.968Z,-0.60
2019-01-23T05:27:56.149Z,-0.70
2019-01-23T05:30:25.928Z,-0.70
2019-01-23T05:32:55.097Z,-0.80
2019-01-23T05:35:24.440Z,-0.70
2019-01-23T05:37:53.595Z,-0.70
2019-01-23T05:40:23.104Z,-0.70
2019-01-23T05:42:52.249Z,-0.70
2019-01-23T05:45:21.419Z,-0.90
2019-01-23T05:47:50.638Z,-0.90
2019-01-23T05:50:20.199Z,-0.90
2019-01-23T05:52:49.436Z,-0.80
2019-01-23T05:55:18.572Z,-0.90
2019-01-23T05:57:47.733Z,-0.90
2019-01-23T06:00:19.363Z,-0.80
2019-01-23T06:02:48.520Z,-0.90
2019-01-23T06:05:18.539Z,-1.00
2019-01-23T06:07:47.876Z,-1.00
2019-01-23T06:10:17.124Z,-1.20
2019-01-23T06:12:46.289Z,-1.10
2019-01-23T06:15:15.854Z,-1.10
2019-01-23T06:17:45.009Z,-1.10
2019-01-23T06:20:16.644Z,-1.10
2019-01-23T06:22:46.012Z,-1.10
2019-01-23T06:25:15.368Z,-1.10
2019-01-23T06:27:44.647Z,-1.10
2019-01-23T06:30:19.106Z,-1.20
2019-01-23T06:32:48.301Z,-1.20
2019-01-23T06:35:17.755Z,-1.20
2019-01-23T06:37:46.943Z,-1.20
2019-01-23T06:40:16.969Z,-1.20
2019-01-23T06:42:46.209Z,-1.20
2019-01-23T06:45:16.433Z,-1.20
2019-01-23T06:47:46.298Z,-1.30
2019-01-23T06:50:19.983Z,-1.30
2019-01-23T06:52:49.154Z,-1.30
2019-01-23T06:55:18.311Z,-1.40
2019-01-23T06:57:47.462Z,-1.10
2019-01-23T07:00:22.320Z,-1.20
2019-01-23T07:02:51.480Z,-1.10
2019-01-23T07:05:20.941Z,-1.10
2019-01-23T07:07:50.076Z,-1.10
2019-01-23T07:10:22.253Z,-1.00
2019-01-23T07:12:51.403Z,-1.00
2019-01-23T07:15:20.928Z,-0.90
2019-01-23T07:17:50.210Z,-0.90
2019-01-23T07:20:24.263Z,-0.80
2019-01-23T07:22:53.426Z,-1.00
2019-01-23T07:25:22.651Z,-1.10
2019-01-23T07:27:51.795Z,-1.10
2019-01-23T07:30:24.284Z,-1.00
2019-01-23T07:32:53.970Z,-1.10
2019-01-23T07:35:23.200Z,-1.20
2019-01-23T07:37:52.355Z,-1.20
2019-01-23T07:40:21.507Z,-1.30
2019-01-23T07:42:50.664Z,-1.30
2019-01-23T07:45:20.509Z,-1.30
2019-01-23T07:47:49.656Z,-1.30
2019-01-23T07:50:18.895Z,-1.20
2019-01-23T07:52:48.336Z,-1.30
2019-01-23T07:55:18.275Z,-1.20
2019-01-23T07:57:47.606Z,-1.20
2019-01-23T08:00:18.613Z,-1.20
2019-01-23T08:02:47.905Z,-1.20
2019-01-23T08:05:19.910Z,-1.20
2019-01-23T08:07:49.385Z,-1.30
2019-01-23T08:10:19.126Z,-1.30
2019-01-23T08:12:48.433Z,-1.30
2019-01-23T08:15:20.112Z,-1.20
2019-01-23T08:17:49.282Z,-1.10
2019-01-23T08:20:19.389Z,-1.10
2019-01-23T08:22:48.570Z,-1.00
2019-01-23T08:25:17.922Z,-1.00
2019-01-23T08:27:47.085Z,-0.90
2019-01-23T08:30:17.813Z,-0.90
2019-01-23T08:32:46.975Z,-0.90
2019-01-23T08:35:17.295Z,-0.70
2019-01-23T08:37:46.454Z,-0.90
2019-01-23T08:40:15.969Z,-0.80
2019-01-23T08:42:45.237Z,-0.90
2019-01-23T08:45:14.716Z,-0.80
2019-01-23T08:47:43.937Z,-0.90
2019-01-23T08:50:22.027Z,-0.70
2019-01-23T08:52:51.227Z,-0.50
2019-01-23T08:55:20.641Z,-0.40
2019-01-23T08:57:49.867Z,-0.40
2019-01-23T09:00:19.396Z,-0.30
2019-01-23T09:02:48.571Z,-0.20
2019-01-23T09:05:17.851Z,-0.10
2019-01-23T09:07:46.996Z,0.10
2019-01-23T09:10:18.602Z,0.10
2019-01-23T09:12:47.842Z,0.10
2019-01-23T09:15:17.223Z,0.20
2019-01-23T09:17:46.779Z,0.40
2019-01-23T09:20:17.108Z,0.40
2019-01-23T09:22:46.259Z,0.50
2019-01-23T09:25:17.457Z,0.60
2019-01-23T09:27:46.792Z,0.70
2019-01-23T09:30:22.304Z,0.90
2019-01-23T09:33:49.892Z,0.90
2019-01-23T09:36:45.433Z,1.20
2019-01-23T09:39:30.357Z,1.40
2019-01-23T09:42:34.992Z,1.60
2019-01-23T09:45:57.728Z,1.80
2019-01-23T09:48:40.540Z,1.80
2019-01-23T09:51:53.936Z,2.00
2019-01-23T09:54:23.084Z,2.30
2019-01-23T09:56:52.236Z,2.00
2019-01-23T09:59:21.449Z,2.40
2019-01-23T10:01:50.609Z,2.40
2019-01-23T10:04:19.751Z,2.60
2019-01-23T10:06:49.439Z,2.60
2019-01-23T10:09:18.686Z,2.40
2019-01-23T10:11:47.862Z,2.30
2019-01-23T10:14:17.019Z,2.40
2019-01-23T10:16:46.181Z,2.60
2019-01-23T10:19:15.344Z,2.80
2019-01-23T10:21:44.483Z,2.90
2019-01-23T10:24:13.639Z,2.60
2019-01-23T10:26:42.786Z,2.50
2019-01-23T10:29:12.112Z,2.60
2019-01-23T10:31:41.291Z,2.30
2019-01-23T10:34:10.420Z,2.50
2019-01-23T10:36:39.593Z,2.30
2019-01-23T10:39:09.755Z,2.30
2019-01-23T10:41:38.910Z,2.40
2019-01-23T10:44:08.088Z,2.10
2019-01-23T10:46:37.259Z,2.20
2019-01-23T10:49:06.417Z,2.10
2019-01-23T10:51:35.595Z,2.10
2019-01-23T10:54:05.049Z,2.20
2019-01-23T10:56:34.289Z,2.10
2019-01-23T10:59:03.528Z,2.20
2019-01-23T11:01:32.956Z,2.40
2019-01-23T11:04:02.204Z,2.50
2019-01-23T11:06:31.457Z,2.60
2019-01-23T11:09:00.725Z,2.50
2019-01-23T11:11:29.852Z,2.50
2019-01-23T11:13:59.025Z,2.70
2019-01-23T11:16:28.233Z,3.00
2019-01-23T11:18:57.447Z,2.90
2019-01-23T11:21:26.582Z,3.20
2019-01-23T11:23:56.136Z,3.20
2019-01-23T11:26:25.332Z,3.40
2019-01-23T11:28:54.591Z,3.30
2019-01-23T11:31:23.773Z,3.10
2019-01-23T11:33:53.878Z,3.00
2019-01-23T11:36:23.016Z,3.10
2019-01-23T11:38:52.618Z,3.10
2019-01-23T11:41:22.037Z,3.30
2019-01-23T11:43:51.375Z,3.50
2019-01-23T11:46:20.510Z,3.90
2019-01-23T11:48:49.760Z,4.40
2019-01-23T11:51:19.014Z,4.70
2019-01-23T11:53:48.193Z,4.70
2019-01-23T11:56:17.429Z,4.60
2019-01-23T11:58:46.664Z,4.50
2019-01-23T12:01:15.808Z,4.30
2019-01-23T12:03:44.952Z,4.50
2019-01-23T12:06:14.299Z,4.40
2019-01-23T12:08:43.702Z,4.30
2019-01-23T12:11:12.872Z,4.10
2019-01-23T12:13:42.070Z,3.60
2019-01-23T12:16:11.325Z,3.80
2019-01-23T12:18:40.488Z,4.10
2019-01-23T12:21:09.749Z,4.40
2019-01-23T12:23:38.955Z,4.40
2019-01-23T12:26:08.132Z,4.40
2019-01-23T12:28:37.433Z,5.00
2019-01-23T12:31:06.608Z,4.90
2019-01-23T12:33:35.785Z,4.80
2019-01-23T12:36:04.948Z,5.00
2019-01-23T12:38:34.072Z,5.20
2019-01-23T12:41:03.245Z,5.00
2019-01-23T12:43:32.391Z,4.70
2019-01-23T12:46:01.543Z,4.40
2019-01-23T12:48:30.729Z,4.20
2019-01-23T12:50:59.921Z,3.90
2019-01-23T12:53:29.067Z,3.60
2019-01-23T12:55:58.212Z,3.60
2019-01-23T12:58:27.388Z,3.70
2019-01-23T13:00:56.540Z,3.40
2019-01-23T13:03:25.805Z,3.20
2019-01-23T13:05:54.973Z,3.10
2019-01-23T13:08:24.137Z,3.10
2019-01-23T13:10:53.377Z,2.90
2019-01-23T13:13:22.532Z,2.80
2019-01-23T13:15:51.689Z,2.80
2019-01-23T13:18:20.845Z,2.90
2019-01-23T13:20:50.046Z,2.70
2019-01-23T13:23:19.807Z,2.50
2019-01-23T13:25:49.293Z,2.50
2019-01-23T13:28:18.452Z,2.60
2019-01-23T13:30:47.601Z,2.60
2019-01-23T13:33:16.772Z,2.40
2019-01-23T13:35:45.895Z,2.30
2019-01-23T13:38:17.475Z,2.40
2019-01-23T13:40:46.609Z,2.30
2019-01-23T13:43:15.850Z,2.20
2019-01-23T13:45:45.013Z,2.20
2019-01-23T13:48:14.228Z,2.10
2019-01-23T13:50:43.422Z,2.20
2019-01-23T13:53:12.636Z,2.20
2019-01-23T13:55:41.800Z,2.30
2019-01-23T13:58:10.927Z,2.10
2019-01-23T14:00:42.183Z,2.10
2019-01-23T14:03:11.482Z,2.20
2019-01-23T14:05:40.780Z,2.30
2019-01-23T14:08:10.715Z,2.30
2019-01-23T14:10:39.877Z,2.20
2019-01-23T14:13:09.189Z,2.10
2019-01-23T14:15:39.395Z,2.10
2019-01-23T14:18:08.850Z,2.10
2019-01-23T14:20:38.028Z,2.10
2019-01-23T14:23:07.445Z,2.00
2019-01-23T14:25:36.623Z,2.10
2019-01-23T14:28:06.292Z,2.10
2019-01-23T14:30:37.890Z,2.00
2019-01-23T14:33:07.220Z,2.10
2019-01-23T14:35:38.144Z,2.00
2019-01-23T14:38:07.300Z,2.00
2019-01-23T14:40:36.457Z,1.90
2019-01-23T14:43:06.736Z,1.90
2019-01-23T14:45:35.966Z,1.70
2019-01-23T14:48:05.699Z,1.80
2019-01-23T14:50:34.948Z,1.80
2019-01-23T14:53:04.403Z,1.80
2019-01-23T14:55:33.653Z,1.80
2019-01-23T14:58:02.841Z,1.60
2019-01-23T15:00:32.833Z,1.60
2019-01-23T15:03:02.003Z,1.60
2019-01-23T15:05:31.264Z,1.50
2019-01-23T15:08:00.665Z,1.50
2019-01-23T15:10:31.473Z,1.60
2019-01-23T15:13:01.489Z,1.60
2019-01-23T15:15:30.664Z,1.50
2019-01-23T15:17:59.852Z,1.60
2019-01-23T15:20:35.006Z,1.60
2019-01-23T15:23:04.572Z,1.70
2019-01-23T15:25:34.029Z,1.60
2019-01-23T15:28:04.314Z,1.60
2019-01-23T15:30:33.634Z,1.60
2019-01-23T15:33:02.796Z,1.70
2019-01-23T15:35:32.013Z,1.50
2019-01-23T15:38:01.194Z,1.30
2019-01-23T15:40:32.845Z,1.30
2019-01-23T15:43:02.204Z,1.40
2019-01-23T15:45:31.378Z,1.40
2019-01-23T15:48:00.611Z,1.40
2019-01-23T15:50:29.886Z,1.30
2019-01-23T15:52:59.037Z,1.20
2019-01-23T15:55:28.227Z,1.30
2019-01-23T15:57:57.449Z,1.30
2019-01-23T16:00:28.895Z,1.30
2019-01-23T16:02:58.034Z,1.30
2019-01-23T16:05:27.488Z,1.20
2019-01-23T16:07:56.911Z,1.10
2019-01-23T16:10:27.909Z,1.10
2019-01-23T16:12:57.328Z,1.00
2019-01-23T16:15:28.138Z,0.90
2019-01-23T16:17:57.656Z,0.80
2019-01-23T16:20:27.101Z,0.90
2019-01-23T16:22:56.788Z,0.90
2019-01-23T16:25:26.193Z,0.90
2019-01-23T16:27:55.353Z,0.90
2019-01-23T16:30:33.706Z,1.00
2019-01-23T16:33:02.873Z,0.90
2019-01-23T16:35:38.511Z,0.80
2019-01-23T16:38:03.469Z,0.60
2019-01-23T16:40:32.636Z,0.70
2019-01-23T16:43:01.992Z,0.70
2019-01-23T16:45:31.209Z,0.60
2019-01-23T16:48:00.606Z,0.60
2019-01-23T16:50:30.151Z,0.60
2019-01-23T16:52:59.342Z,0.60
2019-01-23T16:55:28.569Z,0.50
2019-01-23T16:57:57.833Z,0.50
2019-01-23T17:00:27.514Z,0.50
2019-01-23T17:02:57.274Z,0.60
2019-01-23T17:05:30.180Z,0.50
2019-01-23T17:08:00.955Z,0.50
2019-01-23T17:10:30.334Z,0.50
2019-01-23T17:12:59.817Z,0.40
2019-01-23T17:15:29.066Z,0.40
2019-01-23T17:17:58.512Z,0.40
2019-01-23T17:20:32.131Z,0.30
2019-01-23T17:23:01.557Z,0.40
2019-01-23T17:25:30.701Z,0.30
2019-01-23T17:27:59.907Z,0.40
2019-01-23T17:30:29.279Z,0.40
2019-01-23T17:32:58.505Z,0.40
2019-01-23T17:35:27.729Z,0.50
2019-01-23T17:37:57.053Z,0.60
2019-01-23T17:40:26.319Z,0.60
2019-01-23T17:42:55.706Z,0.60
2019-01-23T17:45:27.463Z,0.50
2019-01-23T17:47:56.697Z,0.60
2019-01-23T17:50:26.122Z,0.50
2019-01-23T17:52:55.389Z,0.60
2019-01-23T17:55:32.936Z,0.50
2019-01-23T17:58:02.102Z,0.40
2019-01-23T18:00:35.334Z,0.40
2019-01-23T18:03:05.603Z,0.40
2019-01-23T18:05:35.030Z,0.40
2019-01-23T18:08:04.483Z,0.50
2019-01-23T18:10:34.022Z,0.40
2019-01-23T18:13:03.193Z,0.50
2019-01-23T18:15:32.944Z,0.50
2019-01-23T18:18:02.106Z,0.40
2019-01-23T18:20:31.287Z,0.50
2019-01-23T18:23:00.616Z,0.50
2019-01-23T18:25:29.930Z,0.40
2019-01-23T18:27:59.136Z,0.40
2019-01-23T18:30:32.032Z,0.40
2019-01-23T18:33:02.116Z,0.30
2019-01-23T18:36:02.274Z,0.30
2019-01-23T18:38:58.724Z,0.40
2019-01-23T18:42:11.200Z,0.30
2019-01-23T18:45:17.853Z,0.20
2019-01-23T18:48:21.196Z,0.20
2019-01-23T18:51:24.199Z,0.20
2019-01-23T18:53:53.615Z,0.30
2019-01-23T18:56:22.945Z,0.40
2019-01-23T18:58:52.537Z,0.40
2019-01-23T19:01:21.885Z,0.40
2019-01-23T19:03:51.098Z,0.30
2019-01-23T19:06:20.438Z,0.40
2019-01-23T19:08:49.820Z,0.30
2019-01-23T19:11:18.963Z,0.20
2019-01-23T19:13:48.902Z,0.30
2019-01-23T19:16:18.400Z,0.30
2019-01-23T19:18:47.561Z,0.30
2019-01-23T19:21:17.012Z,0.30
2019-01-23T19:23:46.377Z,0.30
2019-01-23T19:26:15.567Z,0.30
2019-01-23T19:28:47.166Z,0.30
2019-01-23T19:31:16.426Z,0.20
2019-01-23T19:33:45.792Z,0.20
2019-01-23T19:36:15.168Z,0.30
2019-01-23T19:38:45.008Z,0.40
2019-01-23T19:41:20.194Z,0.40
2019-01-23T19:43:45.331Z,0.30
2019-01-23T19:46:14.545Z,0.30
2019-01-23T19:48:43.818Z,0.30
2019-01-23T19:51:13.160Z,0.30
2019-01-23T19:53:42.529Z,0.20
2019-01-23T19:56:11.862Z,0.20
2019-01-23T19:58:41.161Z,0.20
2019-01-23T20:01:11.248Z,0.30
2019-01-23T20:03:40.408Z,0.30
2019-01-23T20:06:10.162Z,0.20
2019-01-23T20:08:39.601Z,0.30
2019-01-23T20:11:08.906Z,0.30
2019-01-23T20:13:38.253Z,0.40
2019-01-23T20:16:07.547Z,0.30
2019-01-23T20:18:36.801Z,0.30
2019-01-23T20:21:06.564Z,0.20
2019-01-23T20:23:35.764Z,0.00
2019-01-23T20:26:05.445Z,0.00
2019-01-23T20:28:34.759Z,0.20
2019-01-23T20:31:23.032Z,0.20
2019-01-23T20:33:52.512Z,0.20
2019-01-23T20:36:21.758Z,0.10
2019-01-23T20:38:51.000Z,0.00
2019-01-23T20:41:20.516Z,-0.10
2019-01-23T20:43:49.684Z,0.00
2019-01-23T20:46:18.847Z,0.00
2019-01-23T20:48:47.997Z,-0.20
2019-01-23T20:51:17.620Z,-0.20
2019-01-23T20:53:46.780Z,-0.10
2019-01-23T20:56:16.024Z,0.00
2019-01-23T20:58:45.253Z,-0.10
2019-01-23T21:01:14.721Z,-0.20
2019-01-23T21:03:43.951Z,0.00
2019-01-23T21:06:13.165Z,0.00
2019-01-23T21:08:42.439Z,-0.10
2019-01-23T21:11:11.729Z,0.00
2019-01-23T21:13:40.962Z,-0.10
2019-01-23T21:16:10.121Z,-0.30
2019-01-23T21:18:39.314Z,-0.20
2019-01-23T21:21:08.577Z,-0.10
2019-01-23T21:23:37.724Z,-0.20
2019-01-23T21:26:08.646Z,0.00
2019-01-23T21:28:37.793Z,-0.20
2019-01-23T21:31:06.959Z,-0.10
2019-01-23T21:33:42.059Z,-0.30
2019-01-23T21:36:07.164Z,-0.20
2019-01-23T21:38:36.328Z,-0.10
2019-01-23T21:41:05.544Z,-0.10
2019-01-23T21:43:34.877Z,-0.10
2019-01-23T21:46:04.223Z,-0.10
2019-01-23T21:48:33.489Z,-0.10
2019-01-23T21:51:02.679Z,-0.20
2019-01-23T21:53:31.875Z,-0.30
2019-01-23T21:56:01.153Z,-0.20
2019-01-23T21:58:30.345Z,-0.10
2019-01-23T22:01:00.995Z,-0.10
2019-01-23T22:03:30.355Z,-0.30
2019-01-23T22:05:59.557Z,-0.30
2019-01-23T22:08:28.915Z,-0.20
2019-01-23T22:10:58.180Z,-0.20
2019-01-23T22:13:27.434Z,-0.20
2019-01-23T22:15:56.572Z,-0.20
2019-01-23T22:18:25.752Z,-0.20
2019-01-23T22:20:55.014Z,-0.20
2019-01-23T22:23:24.294Z,-0.10
2019-01-23T22:25:53.436Z,-0.10
2019-01-23T22:28:22.615Z,-0.20
2019-01-23T22:30:51.783Z,-0.20
2019-01-23T22:33:21.065Z,-0.30
2019-01-23T22:35:50.237Z,-0.30
2019-01-23T22:38:19.484Z,-0.30
2019-01-23T22:40:48.725Z,-0.30
2019-01-23T22:43:17.892Z,-0.30
2019-01-23T22:45:47.069Z,-0.30
2019-01-23T22:48:16.226Z,-0.20
2019-01-23T22:50:45.385Z,-0.30
2019-01-23T22:53:14.732Z,-0.40
2019-01-23T22:55:43.925Z,-0.40
2019-01-23T22:58:13.846Z,-0.30
2019-01-23T23:01:17.508Z,-0.30
2019-01-23T23:03:47.328Z,-0.20
2019-01-23T23:06:16.496Z,-0.20
2019-01-23T23:08:45.666Z,-0.10
2019-01-23T23:11:14.919Z,-0.10
2019-01-23T23:13:44.068Z,-0.20
2019-01-23T23:16:13.265Z,-0.30
2019-01-23T23:18:42.523Z,-0.10
2019-01-23T23:21:11.777Z,-0.30
2019-01-23T23:24:00.106Z,-0.20
2019-01-23T23:26:29.300Z,-0.30
2019-01-23T23:28:58.606Z,-0.30
2019-01-23T23:31:27.778Z,-0.40
2019-01-23T23:33:57.120Z,-0.40
2019-01-23T23:36:26.356Z,-0.40
2019-01-23T23:38:55.529Z,-0.40
2019-01-23T23:41:24.678Z,-0.40
2019-01-23T23:43:53.832Z,-0.50
2019-01-23T23:46:22.980Z,-0.60
2019-01-23T23:48:52.149Z,-0.60
2019-01-23T23:51:21.313Z,-0.60
2019-01-23T23:53:50.580Z,-0.60
2019-01-23T23:56:19.720Z,-0.70
2019-01-23T23:58:48.975Z,-0.70
